Time;durP1;ratioP1;P1;durP2;ratioP2;P2;SDS_P1;SDS_P2;PMS_P1;PMS_P2;Temp;Humidity;BMP_temperature;BMP_pressure;BME280_temperature;BME280_humidity;BME280_pressure;Samples;Min_cycle;Max_cycle;Signal;HPM_P1;HPM_P2
2023/05/27 00:00:17;;;;;;;20.90;5.95;;;11.20;99.90;;;;;;5010208;28;20220;-82
2023/05/27 00:02:52;;;;;;;15.40;5.53;;;11.10;99.90;;;;;;5028417;28;20201;-85
2023/05/27 00:05:20;;;;;;;13.45;6.38;;;11.00;99.90;;;;;;5028763;28;20201;-83
2023/05/27 00:07:47;;;;;;;11.38;5.43;;;11.00;99.90;;;;;;5030174;28;20216;-81
2023/05/27 00:10:14;;;;;;;12.50;5.50;;;11.00;99.90;;;;;;5025288;28;20201;-85
2023/05/27 00:12:41;;;;;;;15.13;5.60;;;11.00;99.90;;;;;;5023094;28;20275;-84
2023/05/27 00:15:08;;;;;;;13.95;5.47;;;10.90;99.90;;;;;;5022944;28;20217;-85
2023/05/27 00:17:36;;;;;;;15.77;6.50;;;10.90;99.90;;;;;;5022919;28;20260;-86
2023/05/27 00:20:07;;;;;;;18.65;6.13;;;10.90;99.90;;;;;;5021868;28;20220;-84
2023/05/27 00:22:37;;;;;;;16.75;5.65;;;10.80;99.90;;;;;;5023069;28;20221;-87
2023/05/27 00:25:05;;;;;;;9.52;4.90;;;10.80;99.90;;;;;;5006115;28;20201;-85
2023/05/27 00:27:32;;;;;;;15.20;6.15;;;10.80;99.90;;;;;;5023360;28;20216;-86
2023/05/27 00:30:00;;;;;;;16.42;5.53;;;10.80;99.90;;;;;;5019916;28;20204;-86
2023/05/27 00:32:26;;;;;;;11.57;4.72;;;10.90;99.90;;;;;;5021895;28;20205;-87
2023/05/27 00:34:55;;;;;;;13.63;5.60;;;10.70;99.90;;;;;;5023179;28;20268;-82
2023/05/27 00:37:22;;;;;;;11.43;5.20;;;10.60;99.90;;;;;;5022649;28;20243;-85
2023/05/27 00:39:51;;;;;;;16.33;5.20;;;10.70;99.90;;;;;;5024067;28;20201;-84
2023/05/27 00:42:19;;;;;;;10.80;5.55;;;10.50;99.90;;;;;;5021973;28;20221;-86
2023/05/27 00:44:48;;;;;;;13.77;4.97;;;10.50;99.90;;;;;;5018633;28;20209;-85
2023/05/27 00:47:16;;;;;;;11.05;6.13;;;10.50;99.90;;;;;;5023725;28;20235;-87
2023/05/27 00:49:43;;;;;;;13.70;6.38;;;10.50;99.90;;;;;;5023187;28;20209;-88
2023/05/27 00:52:13;;;;;;;18.08;6.38;;;10.50;99.90;;;;;;5019838;28;20208;-86
2023/05/27 00:54:41;;;;;;;10.43;6.25;;;10.50;99.90;;;;;;5024324;28;20205;-85
2023/05/27 00:57:09;;;;;;;11.65;5.72;;;10.40;99.90;;;;;;5024891;28;20215;-86
2023/05/27 00:59:37;;;;;;;16.63;5.85;;;10.30;99.90;;;;;;5026742;28;20215;-86
2023/05/27 01:02:06;;;;;;;17.55;5.50;;;10.30;99.90;;;;;;5026090;28;20252;-83
2023/05/27 01:04:33;;;;;;;12.48;4.85;;;10.40;99.90;;;;;;5015877;28;20551;-82
2023/05/27 01:07:03;;;;;;;11.93;4.97;;;10.30;99.90;;;;;;5021346;28;20323;-85
2023/05/27 01:09:55;;;;;;;13.25;6.32;;;10.30;99.90;;;;;;5023031;28;20216;-82
2023/05/27 01:12:35;;;;;;;7.35;5.72;;;10.30;99.90;;;;;;5023311;28;20209;-81
2023/05/27 01:15:05;;;;;;;12.90;6.47;;;10.20;99.90;;;;;;5022118;28;20272;-83
2023/05/27 01:17:37;;;;;;;12.75;5.65;;;10.20;99.90;;;;;;5014698;28;20190;-84
2023/05/27 01:20:05;;;;;;;11.98;5.97;;;10.20;99.90;;;;;;5020312;28;20193;-86
2023/05/27 01:22:33;;;;;;;22.73;5.45;;;10.20;99.90;;;;;;5018335;28;20209;-88
2023/05/27 01:25:00;;;;;;;19.02;6.15;;;10.10;99.90;;;;;;5018708;28;20205;-88
2023/05/27 01:27:27;;;;;;;32.42;6.68;;;10.10;99.90;;;;;;5029226;28;20223;-86
2023/05/27 01:29:56;;;;;;;26.33;7.10;;;10.10;99.90;;;;;;5029571;28;20188;-85
2023/05/27 01:32:59;;;;;;;13.77;6.65;;;10.10;99.90;;;;;;5010820;28;20212;-86
2023/05/27 01:35:34;;;;;;;11.05;5.43;;;10.00;99.90;;;;;;4930751;29;20195;-85
2023/05/27 01:38:07;;;;;;;16.88;5.90;;;10.00;99.90;;;;;;5016028;28;20205;-86
2023/05/27 01:40:35;;;;;;;16.02;7.13;;;9.90;99.90;;;;;;5020058;28;20405;-80
2023/05/27 01:43:02;;;;;;;14.18;6.15;;;9.90;99.90;;;;;;5017657;28;20262;-85
2023/05/27 01:45:30;;;;;;;8.50;4.65;;;9.90;99.90;;;;;;5024733;28;20232;-83
2023/05/27 01:47:57;;;;;;;19.35;6.05;;;9.90;99.90;;;;;;5021756;28;20205;-85
2023/05/27 01:50:24;;;;;;;16.48;6.43;;;9.90;99.90;;;;;;5017423;28;20212;-85
2023/05/27 01:52:54;;;;;;;16.00;6.28;;;9.80;99.90;;;;;;5024510;28;20272;-86
2023/05/27 01:55:21;;;;;;;73.63;34.65;;;9.90;99.90;;;;;;5008070;28;20212;-83
2023/05/27 01:57:47;;;;;;;13.13;8.25;;;9.70;99.90;;;;;;5028342;28;20208;-86
2023/05/27 02:00:15;;;;;;;14.40;6.88;;;9.90;99.90;;;;;;5023908;28;20209;-84
2023/05/27 02:02:42;;;;;;;16.40;5.50;;;9.90;99.90;;;;;;5005496;28;20268;-83
2023/05/27 02:05:10;;;;;;;19.95;6.03;;;10.00;99.90;;;;;;5022293;28;20213;-86
2023/05/27 02:07:38;;;;;;;16.52;5.03;;;9.90;99.90;;;;;;5022243;28;20212;-85
2023/05/27 02:10:06;;;;;;;9.15;5.60;;;9.70;99.90;;;;;;5021833;28;20213;-85
2023/05/27 02:12:33;;;;;;;16.35;5.50;;;9.80;99.90;;;;;;5022891;28;20272;-88
2023/05/27 02:15:00;;;;;;;14.52;6.47;;;9.90;99.90;;;;;;5026857;28;20193;-85
2023/05/27 02:17:27;;;;;;;13.65;6.18;;;9.90;99.90;;;;;;5022450;23;20218;-84
2023/05/27 02:19:55;;;;;;;17.60;5.70;;;9.70;99.90;;;;;;5015060;28;20198;-83
2023/05/27 02:22:22;;;;;;;11.73;6.30;;;9.80;99.90;;;;;;5013075;28;20242;-84
2023/05/27 02:24:49;;;;;;;13.05;6.10;;;9.90;99.90;;;;;;5012309;28;20293;-84
2023/05/27 02:27:19;;;;;;;14.93;5.18;;;9.70;99.90;;;;;;4999992;28;20550;-83
2023/05/27 02:29:45;;;;;;;15.27;6.20;;;9.70;99.90;;;;;;4986413;28;20204;-83
2023/05/27 02:32:12;;;;;;;11.25;4.93;;;9.70;99.90;;;;;;5003413;28;20245;-85
2023/05/27 02:34:40;;;;;;;13.05;6.97;;;9.70;99.90;;;;;;5003451;28;20193;-83
2023/05/27 02:37:08;;;;;;;12.50;5.40;;;9.70;99.90;;;;;;5003238;28;20346;-82
2023/05/27 02:39:35;;;;;;;17.02;5.60;;;9.60;99.90;;;;;;4998351;28;20570;-85
2023/05/27 02:42:02;;;;;;;13.65;6.00;;;9.60;99.90;;;;;;4994932;28;20199;-84
2023/05/27 02:44:29;;;;;;;17.48;7.18;;;9.70;99.90;;;;;;4995240;28;20269;-85
2023/05/27 02:46:56;;;;;;;18.00;6.55;;;9.70;99.90;;;;;;4999232;28;20273;-86
2023/05/27 02:49:25;;;;;;;12.27;7.70;;;9.60;99.90;;;;;;5021622;28;20214;-85
2023/05/27 02:51:52;;;;;;;15.23;6.10;;;9.60;99.90;;;;;;5000682;28;20578;-85
2023/05/27 02:54:19;;;;;;;10.82;6.05;;;9.60;99.90;;;;;;4994344;28;20394;-89
2023/05/27 02:56:45;;;;;;;12.23;6.40;;;9.40;99.90;;;;;;4993569;28;20205;-83
2023/05/27 02:59:12;;;;;;;14.95;6.63;;;9.50;99.90;;;;;;4998012;28;20257;-84
2023/05/27 03:01:40;;;;;;;15.77;6.18;;;9.50;99.90;;;;;;4998586;28;20213;-87
2023/05/27 03:04:07;;;;;;;13.55;6.93;;;9.50;99.90;;;;;;5001735;28;20229;-83
2023/05/27 03:06:35;;;;;;;11.60;5.95;;;9.40;99.90;;;;;;5006616;28;20236;-83
2023/05/27 03:09:04;;;;;;;15.32;6.30;;;9.40;99.90;;;;;;5002191;28;20217;-84
2023/05/27 03:11:32;;;;;;;17.45;6.72;;;9.50;99.90;;;;;;5006266;28;20540;-84
2023/05/27 03:13:58;;;;;;;15.52;6.25;;;9.40;99.90;;;;;;5003094;28;20589;-86
2023/05/27 03:16:25;;;;;;;6.95;5.68;;;9.50;99.90;;;;;;5004855;28;20241;-86
2023/05/27 03:18:53;;;;;;;23.00;6.90;;;9.40;99.90;;;;;;5001738;28;20221;-83
2023/05/27 03:21:20;;;;;;;13.05;6.60;;;9.40;99.90;;;;;;5007077;28;20214;-85
2023/05/27 03:23:47;;;;;;;18.20;6.22;;;9.40;99.90;;;;;;4999642;28;20241;-85
2023/05/27 03:26:15;;;;;;;16.10;6.75;;;9.30;99.90;;;;;;4998342;28;20211;-84
2023/05/27 03:28:42;;;;;;;19.45;7.30;;;9.30;99.90;;;;;;5004492;28;20217;-85
2023/05/27 03:31:12;;;;;;;14.02;6.88;;;9.50;99.90;;;;;;5011679;28;20191;-85
2023/05/27 03:33:39;;;;;;;13.23;6.60;;;9.80;99.90;;;;;;5003946;28;20179;-84
2023/05/27 03:36:07;;;;;;;10.43;6.38;;;9.80;99.90;;;;;;4998354;28;20202;-85
2023/05/27 03:38:34;;;;;;;17.92;6.70;;;9.90;99.90;;;;;;5003220;28;20269;-85
2023/05/27 03:41:01;;;;;;;16.45;6.07;;;10.10;99.90;;;;;;4995802;28;20217;-85
2023/05/27 03:43:27;;;;;;;16.95;6.60;;;10.20;99.90;;;;;;5000259;28;20230;-85
2023/05/27 03:45:55;;;;;;;10.25;5.60;;;10.20;99.90;;;;;;4997278;28;20204;-86
2023/05/27 03:48:31;;;;;;;13.23;6.18;;;10.20;99.90;;;;;;4988081;28;20197;-85
2023/05/27 03:50:59;;;;;;;15.95;6.28;;;10.20;99.90;;;;;;4995032;28;20201;-87
2023/05/27 03:53:27;;;;;;;16.02;7.82;;;10.20;99.90;;;;;;4994299;28;20285;-85
2023/05/27 03:55:53;;;;;;;12.65;7.60;;;10.40;99.90;;;;;;4996621;28;20209;-85
2023/05/27 03:58:23;;;;;;;15.57;5.78;;;10.60;99.90;;;;;;4989730;28;20242;-82
2023/05/27 04:00:51;;;;;;;20.50;6.88;;;10.60;99.90;;;;;;4992097;28;20398;-84
2023/05/27 04:03:18;;;;;;;12.25;5.72;;;10.60;99.90;;;;;;4995313;28;20202;-86
2023/05/27 04:05:45;;;;;;;13.27;6.07;;;10.70;99.90;;;;;;4992523;28;20575;-85
2023/05/27 04:08:13;;;;;;;20.33;7.28;;;10.80;99.90;;;;;;4986270;28;20210;-86
2023/05/27 04:10:40;;;;;;;14.43;6.13;;;10.90;99.90;;;;;;4985605;28;20202;-85
2023/05/27 04:13:07;;;;;;;20.42;7.47;;;11.00;99.90;;;;;;4993978;28;20280;-83
2023/05/27 04:15:34;;;;;;;17.23;5.90;;;10.80;99.90;;;;;;4991826;28;20210;-85
2023/05/27 04:18:01;;;;;;;11.10;5.03;;;11.00;99.90;;;;;;4997762;28;20289;-82
2023/05/27 04:20:40;;;;;;;17.25;6.13;;;11.00;99.90;;;;;;4986065;28;20206;-85
2023/05/27 04:23:08;;;;;;;10.15;5.35;;;11.00;99.90;;;;;;4991972;28;20236;-88
2023/05/27 04:25:35;;;;;;;19.58;7.22;;;11.00;99.90;;;;;;5137651;23;20373;-86
2023/05/27 04:28:04;;;;;;;12.35;5.32;;;11.30;99.90;;;;;;5022672;28;20215;-85
2023/05/27 04:30:31;;;;;;;12.82;5.55;;;11.20;99.90;;;;;;5020914;28;20201;-84
2023/05/27 04:32:59;;;;;;;14.75;6.05;;;11.30;99.90;;;;;;5011410;28;20196;-86
2023/05/27 04:35:34;;;;;;;12.13;5.50;;;11.30;99.90;;;;;;5098196;23;20248;-86
2023/05/27 04:38:01;;;;;;;15.85;6.68;;;11.40;99.90;;;;;;5007804;28;20206;-84
2023/05/27 04:40:29;;;;;;;13.73;5.07;;;11.40;99.90;;;;;;5008393;28;20213;-84
2023/05/27 04:42:56;;;;;;;12.40;6.70;;;11.40;99.90;;;;;;5016365;28;20209;-83
2023/05/27 04:45:23;;;;;;;9.80;5.53;;;11.40;99.90;;;;;;5027906;28;20243;-85
2023/05/27 04:47:53;;;;;;;6.60;4.70;;;11.40;99.90;;;;;;5013949;28;20272;-86
2023/05/27 04:50:20;;;;;;;10.15;5.75;;;11.50;99.90;;;;;;5016454;28;20197;-84
2023/05/27 04:52:47;;;;;;;18.13;5.90;;;11.60;99.90;;;;;;5024723;28;20210;-84
2023/05/27 04:55:16;;;;;;;13.40;6.00;;;11.60;99.90;;;;;;5005111;28;20497;-83
2023/05/27 04:57:43;;;;;;;11.85;5.57;;;11.50;99.90;;;;;;5022928;28;20207;-84
2023/05/27 05:02:39;;;;;;;20.40;5.57;;;11.60;99.90;;;;;;5027595;28;20190;-80
2023/05/27 05:05:09;;;;;;;9.05;5.07;;;11.60;99.90;;;;;;5013746;28;20213;-79
2023/05/27 05:07:40;;;;;;;14.80;5.13;;;11.60;99.90;;;;;;5020914;28;20264;-81
2023/05/27 05:10:09;;;;;;;10.80;4.88;;;11.70;99.90;;;;;;5009948;28;20209;-84
2023/05/27 05:12:37;;;;;;;14.02;5.55;;;11.60;99.90;;;;;;5026378;28;20205;-82
2023/05/27 05:15:05;;;;;;;13.75;6.03;;;11.60;99.90;;;;;;5030583;28;20231;-81
2023/05/27 05:17:32;;;;;;;20.05;6.20;;;11.60;99.90;;;;;;5021939;28;20205;-83
2023/05/27 05:20:03;;;;;;;11.25;5.85;;;11.90;99.90;;;;;;5021032;28;20192;-82
2023/05/27 05:22:30;;;;;;;13.02;6.07;;;11.90;99.90;;;;;;5026881;28;20259;-85
2023/05/27 05:24:57;;;;;;;17.02;6.70;;;11.90;99.90;;;;;;5020537;28;20502;-82
2023/05/27 05:27:25;;;;;;;11.88;5.22;;;12.00;99.90;;;;;;5073767;23;20222;-80
2023/05/27 05:29:52;;;;;;;14.77;6.18;;;12.10;99.90;;;;;;5010049;28;20192;-81
2023/05/27 05:32:19;;;;;;;11.57;4.53;;;12.00;99.90;;;;;;5008883;28;20205;-83
2023/05/27 05:34:46;;;;;;;8.57;5.35;;;12.10;99.90;;;;;;5004939;28;20214;-84
2023/05/27 05:37:13;;;;;;;12.73;6.88;;;12.40;99.90;;;;;;4998318;28;20221;-82
2023/05/27 05:39:42;;;;;;;11.40;5.45;;;12.60;99.90;;;;;;5001948;28;20217;-86
2023/05/27 05:42:12;;;;;;;12.05;4.60;;;12.90;99.90;;;;;;5005369;28;20202;-85
2023/05/27 05:44:39;;;;;;;16.40;6.25;;;12.80;99.90;;;;;;4998414;28;20225;-83
2023/05/27 05:47:06;;;;;;;10.95;4.20;;;12.80;99.90;;;;;;4999385;28;20217;-83
2023/05/27 05:49:33;;;;;;;6.50;4.05;;;12.80;99.90;;;;;;5004047;28;20245;-83
2023/05/27 05:52:00;;;;;;;9.23;3.70;;;13.00;99.90;;;;;;5002766;28;20268;-86
2023/05/27 05:54:27;;;;;;;9.18;7.00;;;13.20;99.90;;;;;;4994576;28;20573;-85
2023/05/27 05:56:54;;;;;;;4.85;3.00;;;13.40;99.90;;;;;;4986980;28;20198;-81
2023/05/27 05:59:22;;;;;;;14.00;4.45;;;13.40;99.90;;;;;;5004520;28;20220;-87
2023/05/27 06:01:49;;;;;;;9.27;3.28;;;13.30;99.90;;;;;;5000207;28;20198;-83
2023/05/27 06:04:19;;;;;;;9.68;3.70;;;13.30;99.90;;;;;;5004313;28;20281;-83
2023/05/27 06:06:49;;;;;;;19.45;4.45;;;13.40;99.90;;;;;;5003511;28;20233;-83
2023/05/27 06:09:19;;;;;;;7.65;3.25;;;13.60;99.90;;;;;;5002298;28;20201;-84
2023/05/27 06:11:46;;;;;;;8.38;3.38;;;13.80;99.90;;;;;;5001701;28;20210;-85
2023/05/27 06:14:13;;;;;;;9.18;3.20;;;13.80;99.90;;;;;;5002158;28;20214;-86
2023/05/27 06:16:40;;;;;;;7.72;3.35;;;14.20;99.90;;;;;;5001885;28;20209;-83
2023/05/27 06:19:07;;;;;;;12.50;4.20;;;14.20;99.90;;;;;;5002518;28;20269;-83
2023/05/27 06:21:35;;;;;;;11.05;4.90;;;14.40;99.90;;;;;;5001495;28;20530;-84
2023/05/27 06:24:02;;;;;;;7.07;2.90;;;14.60;99.90;;;;;;5002803;28;20237;-81
2023/05/27 06:26:32;;;;;;;7.67;4.67;;;14.60;99.90;;;;;;5002042;28;20447;-81
2023/05/27 06:29:02;;;;;;;4.27;2.77;;;14.60;99.90;;;;;;5001316;28;20462;-83
2023/05/27 06:31:29;;;;;;;6.60;3.40;;;15.20;99.90;;;;;;5003256;28;20423;-83
2023/05/27 06:33:56;;;;;;;8.67;3.23;;;15.30;99.90;;;;;;5010531;28;20504;-82
2023/05/27 06:36:26;;;;;;;4.80;2.77;;;15.50;99.90;;;;;;5014019;28;20434;-80
2023/05/27 06:39:00;;;;;;;6.80;2.93;;;15.30;99.90;;;;;;5012666;28;20455;-82
2023/05/27 06:41:27;;;;;;;6.40;2.83;;;15.40;99.90;;;;;;5002219;28;20513;-81
2023/05/27 06:43:54;;;;;;;8.53;3.17;;;15.50;99.90;;;;;;5001577;28;20452;-83
2023/05/27 06:46:24;;;;;;;10.40;2.80;;;15.70;99.90;;;;;;4982230;28;20542;-85
2023/05/27 06:48:51;;;;;;;3.17;2.30;;;16.20;99.90;;;;;;5002810;28;20450;-81
2023/05/27 06:51:21;;;;;;;5.40;2.67;;;15.90;99.90;;;;;;5001940;28;20420;-88
2023/05/27 06:53:48;;;;;;;3.07;2.13;;;16.20;99.90;;;;;;5002518;28;20453;-82
2023/05/27 06:56:15;;;;;;;3.13;1.90;;;16.90;99.90;;;;;;4989280;28;20435;-84
2023/05/27 06:58:43;;;;;;;6.03;2.80;;;16.90;99.90;;;;;;5001425;28;20426;-82
2023/05/27 07:01:10;;;;;;;6.10;2.13;;;17.20;99.90;;;;;;5000163;28;20656;-83
2023/05/27 07:03:40;;;;;;;3.93;2.30;;;17.70;99.90;;;;;;5000643;28;20473;-82
2023/05/27 07:06:08;;;;;;;4.87;2.47;;;18.50;99.90;;;;;;5003017;28;20499;-84
2023/05/27 07:08:34;;;;;;;5.23;1.93;;;18.80;99.90;;;;;;5001273;28;20465;-88
2023/05/27 07:11:02;;;;;;;3.53;2.07;;;19.20;99.90;;;;;;5001433;28;20493;-84
2023/05/27 07:13:28;;;;;;;4.40;2.20;;;20.60;98.80;;;;;;5001712;28;20462;-80
2023/05/27 07:15:55;;;;;;;4.30;2.33;;;20.50;97.70;;;;;;5001387;28;20450;-86
2023/05/27 07:18:23;;;;;;;12.33;2.00;;;19.70;98.10;;;;;;5003803;28;20752;-81
2023/05/27 07:20:49;;;;;;;4.30;2.10;;;19.90;97.70;;;;;;5012981;28;20466;-79
2023/05/27 07:23:17;;;;;;;3.57;1.80;;;20.30;97.40;;;;;;5013336;28;20485;-84
2023/05/27 07:25:44;;;;;;;5.07;2.13;;;21.70;92.90;;;;;;5004942;28;20477;-80
2023/05/27 07:28:12;;;;;;;4.90;2.30;;;21.30;89.90;;;;;;5002858;28;20468;-85
2023/05/27 07:30:39;;;;;;;9.60;3.40;;;22.50;88.10;;;;;;5002338;28;20436;-83
2023/05/27 07:33:06;;;;;;;5.90;2.17;;;24.20;81.40;;;;;;5010193;28;20406;-83
2023/05/27 07:35:33;;;;;;;2.80;1.83;;;25.30;70.80;;;;;;5005250;28;20733;-82
2023/05/27 07:38:02;;;;;;;3.27;2.10;;;27.90;59.50;;;;;;5004838;28;20420;-87
2023/05/27 07:40:29;;;;;;;9.30;2.87;;;28.90;53.30;;;;;;4993828;28;20427;-83
2023/05/27 07:42:57;;;;;;;3.93;2.03;;;26.30;54.40;;;;;;5003315;28;20470;-84
2023/05/27 07:45:23;;;;;;;2.50;2.00;;;25.30;55.90;;;;;;4992556;28;20526;-88
2023/05/27 07:47:52;;;;;;;4.63;2.50;;;24.70;57.40;;;;;;5001790;28;20422;-84
2023/05/27 07:50:19;;;;;;;7.37;2.47;;;23.20;59.60;;;;;;5002427;28;20447;-85
2023/05/27 07:52:47;;;;;;;2.80;2.30;;;23.60;61.50;;;;;;5000729;28;20422;-84
2023/05/27 07:55:14;;;;;;;4.73;2.07;;;23.60;63.20;;;;;;5002941;28;20468;-83
2023/05/27 07:57:43;;;;;;;3.97;2.13;;;23.30;62.80;;;;;;5002212;28;20435;-83
2023/05/27 08:00:14;;;;;;;6.10;2.23;;;24.40;59.30;;;;;;4986589;28;20448;-84
2023/05/27 08:02:43;;;;;;;4.63;2.50;;;23.30;62.40;;;;;;5000431;28;20748;-86
2023/05/27 08:05:10;;;;;;;2.63;2.43;;;25.60;58.00;;;;;;5002154;28;20547;-87
2023/05/27 08:07:37;;;;;;;5.17;2.50;;;25.00;57.30;;;;;;5001539;28;20523;-87
2023/05/27 08:10:07;;;;;;;6.77;2.90;;;25.80;56.90;;;;;;4992260;28;20463;-86
2023/05/27 08:12:37;;;;;;;6.60;2.10;;;28.00;54.20;;;;;;5000994;28;20543;-85
2023/05/27 08:15:06;;;;;;;3.80;1.83;;;28.80;50.70;;;;;;4992530;28;20511;-84
2023/05/27 08:17:32;;;;;;;7.80;2.73;;;26.30;51.10;;;;;;4999951;28;20436;-88
2023/05/27 08:20:00;;;;;;;6.53;2.93;;;25.40;54.00;;;;;;5002302;28;20450;-81
2023/05/27 08:22:27;;;;;;;7.00;2.70;;;25.90;55.40;;;;;;5002897;28;20448;-85
2023/05/27 08:24:55;;;;;;;3.63;2.67;;;24.70;57.80;;;;;;5002338;28;20475;-86
2023/05/27 08:27:53;;;;;;;7.70;3.43;;;24.80;58.50;;;;;;4983691;28;20527;-83
2023/05/27 08:30:21;;;;;;;7.70;3.33;;;26.10;58.20;;;;;;5000068;28;20476;-83
2023/05/27 08:32:51;;;;;;;3.30;2.57;;;28.40;53.70;;;;;;5000743;28;20718;-83
2023/05/27 08:35:19;;;;;;;4.53;2.63;;;29.30;52.10;;;;;;5000048;28;20443;-86
2023/05/27 08:37:49;;;;;;;4.37;2.87;;;28.70;50.90;;;;;;5001913;28;20462;-85
2023/05/27 08:40:18;;;;;;;5.40;3.27;;;27.90;53.60;;;;;;5001322;28;20511;-82
2023/05/27 08:42:47;;;;;;;6.03;3.30;;;27.70;52.40;;;;;;5001276;28;20486;-82
2023/05/27 08:45:22;;;;;;;5.73;3.50;;;26.00;56.70;;;;;;5001535;28;20551;-89
2023/05/27 08:47:49;;;;;;;6.60;3.10;;;25.60;56.20;;;;;;4983439;28;20470;-83
2023/05/27 08:50:17;;;;;;;6.23;3.07;;;26.10;56.70;;;;;;5002307;28;20511;-86
2023/05/27 08:52:56;;;;;;;3.70;2.57;;;27.60;54.60;;;;;;4996675;28;20490;-86
2023/05/27 08:55:24;;;;;;;5.90;3.70;;;27.90;53.20;;;;;;5003569;28;20440;-82
2023/05/27 08:58:04;;;;;;;6.60;3.30;;;27.00;54.00;;;;;;5005714;28;20559;-84
2023/05/27 09:00:31;;;;;;;6.80;3.03;;;24.80;58.90;;;;;;5001661;28;20929;-83
2023/05/27 09:02:59;;;;;;;4.77;2.20;;;26.80;54.90;;;;;;5001502;28;20430;-85
2023/05/27 09:05:27;;;;;;;3.20;2.53;;;26.40;54.50;;;;;;5001233;28;20457;-82
2023/05/27 09:07:55;;;;;;;8.03;2.90;;;26.10;55.30;;;;;;4983298;28;20418;-84
2023/05/27 09:10:22;;;;;;;4.70;2.57;;;26.60;54.90;;;;;;4990300;28;20467;-79
2023/05/27 09:12:53;;;;;;;5.87;3.10;;;27.50;53.50;;;;;;5000120;28;20414;-87
2023/05/27 09:15:23;;;;;;;9.03;3.00;;;27.80;53.00;;;;;;5000340;28;20418;-82
2023/05/27 09:17:50;;;;;;;4.53;2.70;;;25.50;55.20;;;;;;5000965;28;20443;-84
2023/05/27 09:20:27;;;;;;;4.47;3.20;;;24.90;57.60;;;;;;5001118;28;20449;-88
2023/05/27 09:23:00;;;;;;;6.27;3.80;;;25.10;58.70;;;;;;4993689;28;20453;-80
2023/05/27 09:25:28;;;;;;;5.40;3.00;;;24.70;60.90;;;;;;5000237;28;20881;-85
2023/05/27 09:27:56;;;;;;;4.83;2.80;;;25.40;58.30;;;;;;4999832;28;20444;-85
2023/05/27 09:30:27;;;;;;;6.63;3.13;;;25.90;58.30;;;;;;5000149;28;20451;-86
2023/05/27 09:33:02;;;;;;;10.37;2.93;;;23.60;62.60;;;;;;4993801;28;20644;-82
2023/05/27 09:35:30;;;;;;;5.10;3.60;;;21.60;72.60;;;;;;5000667;28;20507;-84
2023/05/27 09:38:05;;;;;;;9.40;3.57;;;20.60;80.30;;;;;;4993473;28;20448;-82
2023/05/27 09:40:37;;;;;;;3.47;2.40;;;20.00;86.80;;;;;;4997144;28;20478;-83
2023/05/27 09:43:05;;;;;;;8.33;2.90;;;20.20;91.80;;;;;;4996694;28;20507;-83
2023/05/27 09:45:33;;;;;;;7.23;3.73;;;20.50;91.60;;;;;;5004156;28;20491;-81
2023/05/27 09:48:02;;;;;;;8.97;3.50;;;20.50;92.10;;;;;;5007061;28;20440;-86
2023/05/27 09:50:30;;;;;;;7.40;3.20;;;20.10;93.30;;;;;;5000055;28;20864;-84
2023/05/27 09:53:06;;;;;;;7.50;3.27;;;19.80;94.10;;;;;;4999064;28;20441;-81
2023/05/27 09:55:41;;;;;;;5.30;4.13;;;19.60;93.10;;;;;;5005311;28;20525;-83
2023/05/27 09:58:09;;;;;;;7.67;3.30;;;19.30;95.10;;;;;;5005311;28;20788;-83
2023/05/27 10:00:40;;;;;;;7.80;3.07;;;19.30;95.50;;;;;;5005750;28;20406;-86
2023/05/27 10:03:10;;;;;;;5.23;3.03;;;19.10;94.40;;;;;;5006642;28;20414;-85
2023/05/27 10:05:38;;;;;;;3.03;2.50;;;19.20;95.30;;;;;;5001446;28;20832;-82
2023/05/27 10:08:06;;;;;;;7.30;3.07;;;19.10;95.60;;;;;;5005301;28;20421;-88
2023/05/27 10:10:53;;;;;;;4.80;2.47;;;19.00;94.70;;;;;;4998709;28;20438;-83
2023/05/27 10:13:23;;;;;;;6.80;3.93;;;19.10;97.00;;;;;;5003982;28;20418;-84
2023/05/27 10:15:52;;;;;;;8.13;3.50;;;18.80;98.20;;;;;;5003974;28;20422;-85
2023/05/27 10:18:28;;;;;;;5.10;2.53;;;18.70;98.60;;;;;;5004875;28;20449;-84
2023/05/27 10:20:58;;;;;;;6.53;2.50;;;18.90;98.00;;;;;;5005021;28;20413;-84
2023/05/27 10:23:29;;;;;;;3.70;2.70;;;18.90;97.50;;;;;;4986128;28;20474;-82
2023/05/27 10:26:00;;;;;;;7.47;3.13;;;18.90;98.60;;;;;;4987420;28;20487;-85
2023/05/27 10:28:36;;;;;;;4.60;2.40;;;19.00;98.10;;;;;;5000726;28;20474;-80
2023/05/27 10:31:07;;;;;;;10.07;2.70;;;19.10;95.80;;;;;;5002560;28;20427;-84
2023/05/27 10:33:46;;;;;;;5.70;2.73;;;19.20;97.50;;;;;;5001525;28;20642;-84
2023/05/27 10:36:15;;;;;;;3.60;2.63;;;19.10;97.10;;;;;;5003150;28;20447;-85
2023/05/27 10:38:53;;;;;;;4.80;4.30;;;19.00;97.30;;;;;;5003826;28;20407;-82
2023/05/27 10:41:22;;;;;;;4.33;2.33;;;18.90;97.50;;;;;;4975000;28;20512;-84
2023/05/27 10:43:59;;;;;;;7.23;3.27;;;18.70;96.40;;;;;;5003880;28;20446;-82
2023/05/27 10:46:37;;;;;;;3.20;2.33;;;18.70;97.40;;;;;;5011822;28;20465;-85
2023/05/27 10:49:22;;;;;;;2.93;1.93;;;19.00;97.40;;;;;;5012219;28;20437;-81
2023/05/27 10:51:49;;;;;;;5.80;2.43;;;19.20;96.70;;;;;;5001166;28;20408;-84
2023/05/27 10:54:16;;;;;;;4.47;3.10;;;19.20;95.90;;;;;;5007703;28;20454;-81
2023/05/27 10:56:54;;;;;;;4.67;2.60;;;19.20;96.90;;;;;;5001238;28;20463;-84
2023/05/27 10:59:22;;;;;;;8.10;3.30;;;19.40;96.40;;;;;;5003411;28;20426;-85
2023/05/27 11:01:54;;;;;;;8.23;3.63;;;19.50;95.70;;;;;;5002435;28;20449;-80
2023/05/27 11:04:22;;;;;;;3.63;1.90;;;19.70;95.50;;;;;;5004296;28;20421;-85
2023/05/27 11:07:00;;;;;;;4.53;2.73;;;19.70;93.30;;;;;;5004538;28;20489;-84
2023/05/27 11:09:46;;;;;;;3.90;2.73;;;19.70;94.20;;;;;;5007450;28;20418;-82
2023/05/27 11:12:21;;;;;;;4.53;2.40;;;19.40;92.00;;;;;;5011630;28;20434;-83
2023/05/27 11:14:55;;;;;;;4.40;2.20;;;19.20;92.70;;;;;;5000673;28;20458;-80
2023/05/27 11:17:24;;;;;;;3.90;2.43;;;19.00;92.80;;;;;;5003858;28;20618;-84
2023/05/27 11:19:52;;;;;;;3.27;2.10;;;19.00;92.80;;;;;;5001643;28;20680;-83
2023/05/27 11:22:19;;;;;;;4.23;2.33;;;19.40;94.20;;;;;;4979329;28;20442;-87
2023/05/27 11:24:57;;;;;;;4.63;2.93;;;19.40;92.40;;;;;;4997647;28;20426;-87
2023/05/27 11:27:24;;;;;;;4.33;1.87;;;19.40;91.30;;;;;;5003048;28;20434;-84
2023/05/27 11:29:52;;;;;;;5.37;2.17;;;19.40;91.80;;;;;;5004014;28;20414;-83
2023/05/27 11:32:20;;;;;;;3.40;2.33;;;19.50;92.50;;;;;;4998596;28;20434;-85
2023/05/27 11:34:48;;;;;;;4.47;1.77;;;19.40;86.90;;;;;;5001339;28;20451;-83
2023/05/27 11:37:15;;;;;;;4.00;2.30;;;19.30;88.60;;;;;;5004129;28;20426;-85
2023/05/27 11:39:52;;;;;;;11.50;2.90;;;19.50;89.20;;;;;;5004521;28;20467;-84
2023/05/27 11:42:23;;;;;;;8.13;2.20;;;19.40;89.70;;;;;;5003636;28;20414;-86
2023/05/27 11:44:52;;;;;;;5.10;2.87;;;19.60;90.00;;;;;;4996535;28;20449;-83
2023/05/27 11:47:22;;;;;;;6.10;1.87;;;19.30;86.60;;;;;;5005107;28;20475;-84
2023/05/27 11:49:50;;;;;;;3.40;2.00;;;19.00;87.00;;;;;;5001073;28;20758;-81
2023/05/27 11:52:17;;;;;;;3.50;2.27;;;19.00;87.80;;;;;;5000174;28;20467;-83
2023/05/27 11:54:51;;;;;;;4.17;2.90;;;19.40;88.10;;;;;;5001055;28;20443;-81
2023/05/27 11:57:20;;;;;;;3.27;2.10;;;19.50;84.90;;;;;;5000666;28;20730;-86
2023/05/27 11:59:48;;;;;;;2.87;2.03;;;19.70;82.80;;;;;;5002090;28;20625;-85
2023/05/27 12:02:20;;;;;;;2.37;2.10;;;19.70;81.00;;;;;;4999780;28;20413;-84
2023/05/27 12:04:48;;;;;;;6.30;2.30;;;19.60;81.20;;;;;;4996872;28;20438;-86
2023/05/27 12:07:15;;;;;;;6.43;4.40;;;19.50;83.00;;;;;;4979459;28;20454;-81
2023/05/27 12:09:48;;;;;;;5.03;2.50;;;19.50;82.80;;;;;;4977202;28;20421;-87
2023/05/27 12:12:18;;;;;;;3.13;1.87;;;19.60;82.80;;;;;;5005495;28;20429;-83
2023/05/27 12:14:45;;;;;;;3.80;2.93;;;19.60;81.20;;;;;;5002869;28;20414;-82
2023/05/27 12:17:12;;;;;;;3.70;1.80;;;19.70;79.30;;;;;;5009186;28;20417;-84
2023/05/27 12:19:39;;;;;;;4.80;2.03;;;19.50;76.00;;;;;;5002233;28;20474;-85
2023/05/27 12:22:09;;;;;;;2.60;2.10;;;19.40;77.60;;;;;;4984539;28;20483;-85
2023/05/27 12:24:36;;;;;;;4.20;2.37;;;19.20;75.10;;;;;;5001068;28;20719;-87
2023/05/27 12:27:03;;;;;;;4.23;2.57;;;19.30;76.40;;;;;;5002933;28;20508;-87
2023/05/27 12:29:30;;;;;;;2.80;2.00;;;19.40;77.10;;;;;;5003660;28;20443;-88
2023/05/27 12:31:58;;;;;;;3.80;2.13;;;19.40;73.10;;;;;;5004340;28;20451;-85
2023/05/27 12:34:26;;;;;;;4.53;2.80;;;19.30;72.30;;;;;;5003940;28;20434;-86
2023/05/27 12:36:53;;;;;;;3.00;2.40;;;19.20;71.10;;;;;;4997031;28;20763;-86
2023/05/27 12:39:22;;;;;;;4.23;2.97;;;19.10;72.90;;;;;;4988118;28;20437;-83
2023/05/27 12:41:50;;;;;;;3.47;2.60;;;19.10;75.50;;;;;;5003988;28;20485;-84
2023/05/27 12:44:18;;;;;;;2.40;2.20;;;19.60;78.20;;;;;;5003365;28;20450;-88
2023/05/27 12:46:45;;;;;;;3.10;2.30;;;19.70;76.40;;;;;;5000708;28;20515;-88
2023/05/27 12:49:12;;;;;;;4.10;1.60;;;19.70;76.70;;;;;;4998869;28;20458;-84
2023/05/27 12:51:39;;;;;;;2.63;2.10;;;19.80;77.00;;;;;;5003467;28;20870;-82
2023/05/27 12:54:07;;;;;;;7.00;2.50;;;19.70;79.40;;;;;;5002532;28;20534;-83